Time;durP1;ratioP1;P1;durP2;ratioP2;P2;SDS_P1;SDS_P2;PMS_P1;PMS_P2;Temp;Humidity;BMP_temperature;BMP_pressure;BME280_temperature;BME280_humidity;BME280_pressure;Samples;Min_cycle;Max_cycle;Signal;HPM_P1;HPM_P2
2021/10/28 00:13:54;;;;;;;13.20;11.88;;;6.60;99.90;;;;;;5072759;28;20773;-84
2021/10/28 00:16:25;;;;;;;16.02;13.48;;;6.60;99.90;;;;;;5082723;28;20205;-84
2021/10/28 00:19:00;;;;;;;18.55;15.45;;;6.50;99.90;;;;;;5082811;28;20224;-85
2021/10/28 00:21:27;;;;;;;17.33;15.73;;;6.50;99.90;;;;;;5084646;28;20215;-84
2021/10/28 00:23:59;;;;;;;16.20;14.50;;;6.50;99.90;;;;;;5083603;28;20197;-84
2021/10/28 00:26:26;;;;;;;18.05;14.90;;;6.50;99.90;;;;;;5083635;28;20232;-84
2021/10/28 00:28:57;;;;;;;14.35;12.85;;;6.50;99.90;;;;;;5076075;28;20217;-84
2021/10/28 00:31:26;;;;;;;16.58;12.27;;;6.50;99.90;;;;;;5063169;28;20604;-85
2021/10/28 00:33:53;;;;;;;12.43;11.25;;;6.40;99.90;;;;;;5064526;28;20229;-85
2021/10/28 00:36:20;;;;;;;13.43;11.93;;;6.40;99.90;;;;;;5063565;28;20214;-85
2021/10/28 00:38:48;;;;;;;11.80;10.52;;;6.40;99.90;;;;;;5068922;28;20217;-84
2021/10/28 00:41:15;;;;;;;11.60;10.50;;;6.40;99.90;;;;;;5083949;28;20300;-85
2021/10/28 00:43:46;;;;;;;12.85;11.55;;;6.40;99.90;;;;;;5073378;28;20609;-85
2021/10/28 00:46:13;;;;;;;13.75;11.40;;;6.40;99.90;;;;;;5063111;28;20208;-85
2021/10/28 00:48:41;;;;;;;14.88;13.32;;;6.40;99.90;;;;;;5062906;28;20213;-85
2021/10/28 00:51:08;;;;;;;15.63;13.13;;;6.30;99.90;;;;;;5063124;28;20213;-83
2021/10/28 00:53:35;;;;;;;16.45;13.40;;;6.30;99.90;;;;;;5063450;28;20215;-84
2021/10/28 00:56:03;;;;;;;16.20;14.60;;;6.40;99.90;;;;;;5063270;28;20214;-84
2021/10/28 00:58:31;;;;;;;16.23;14.57;;;6.40;99.90;;;;;;5081368;28;20249;-84
2021/10/28 01:00:59;;;;;;;16.55;14.82;;;6.30;99.90;;;;;;5087628;28;20201;-84
2021/10/28 01:03:26;;;;;;;21.67;17.98;;;6.30;99.90;;;;;;5070654;28;20552;-84
2021/10/28 01:05:56;;;;;;;22.67;18.90;;;6.30;99.90;;;;;;5067353;28;20232;-85
2021/10/28 01:08:24;;;;;;;28.73;20.90;;;6.40;99.90;;;;;;5083538;28;20227;-84
2021/10/28 01:10:51;;;;;;;23.80;19.90;;;6.40;99.90;;;;;;5086123;28;20207;-84
2021/10/28 01:13:20;;;;;;;33.13;21.33;;;6.40;99.90;;;;;;5087104;28;20229;-84
2021/10/28 01:15:47;;;;;;;26.42;20.95;;;6.50;99.90;;;;;;5087496;28;20204;-84
2021/10/28 01:18:16;;;;;;;35.15;24.77;;;6.50;99.90;;;;;;5074680;28;20232;-84
2021/10/28 01:20:46;;;;;;;31.58;23.08;;;6.60;99.90;;;;;;5067304;28;20213;-83
2021/10/28 01:23:13;;;;;;;46.80;25.58;;;6.60;99.90;;;;;;5067370;28;20198;-83
2021/10/28 01:25:41;;;;;;;40.42;27.98;;;6.70;99.90;;;;;;5068145;28;20205;-83
2021/10/28 01:28:14;;;;;;;41.97;25.92;;;6.70;99.90;;;;;;5079379;28;20230;-85
2021/10/28 01:30:40;;;;;;;63.42;26.23;;;6.80;99.90;;;;;;5087263;28;20209;-84
2021/10/28 01:33:07;;;;;;;33.78;24.60;;;6.90;99.90;;;;;;5086949;28;20437;-85
2021/10/28 01:35:34;;;;;;;33.33;24.98;;;7.10;99.90;;;;;;5087250;28;20205;-85
2021/10/28 01:38:02;;;;;;;78.93;27.88;;;7.10;99.90;;;;;;5076533;28;20223;-85
2021/10/28 01:40:29;;;;;;;98.05;33.42;;;7.10;99.90;;;;;;5066967;28;20206;-84
2021/10/28 01:42:56;;;;;;;178.02;37.97;;;7.10;99.90;;;;;;5075214;28;20199;-84
2021/10/28 01:45:22;;;;;;;303.58;42.40;;;7.10;99.90;;;;;;5086861;28;20200;-84
2021/10/28 01:47:49;;;;;;;227.23;38.17;;;7.10;99.90;;;;;;5086584;28;20221;-84
2021/10/28 01:50:16;;;;;;;83.57;30.00;;;7.10;99.90;;;;;;5087002;28;20204;-84
2021/10/28 01:52:43;;;;;;;73.78;27.73;;;7.10;99.90;;;;;;5086816;28;20201;-85
2021/10/28 01:55:12;;;;;;;138.18;30.65;;;7.10;99.90;;;;;;5085863;28;20240;-84
2021/10/28 01:57:41;;;;;;;95.00;29.65;;;7.10;99.90;;;;;;5076722;28;20599;-84
2021/10/28 02:00:15;;;;;;;112.97;27.58;;;7.10;99.90;;;;;;5067375;28;20214;-85
2021/10/28 02:02:42;;;;;;;57.50;23.02;;;7.10;99.90;;;;;;5067182;28;20624;-85
2021/10/28 02:05:10;;;;;;;32.55;17.85;;;7.10;99.90;;;;;;5071508;28;20181;-83
2021/10/28 02:07:37;;;;;;;20.88;18.45;;;7.00;99.90;;;;;;5099095;28;20235;-83
2021/10/28 02:10:05;;;;;;;30.98;18.25;;;7.00;99.90;;;;;;5099737;28;20252;-82
2021/10/28 02:12:35;;;;;;;56.65;24.38;;;7.00;99.90;;;;;;5095884;28;20211;-84
2021/10/28 02:15:02;;;;;;;43.17;21.65;;;7.00;99.90;;;;;;5087074;28;20228;-85
2021/10/28 02:17:29;;;;;;;23.10;19.05;;;7.00;99.90;;;;;;5087268;28;20229;-85
2021/10/28 02:19:56;;;;;;;153.07;31.23;;;7.00;99.90;;;;;;5086768;28;20212;-85
2021/10/28 02:22:22;;;;;;;102.00;27.63;;;7.10;99.90;;;;;;5085099;28;20203;-85
2021/10/28 02:24:49;;;;;;;157.38;30.92;;;7.00;99.90;;;;;;5086619;28;20212;-85
2021/10/28 02:27:16;;;;;;;187.27;31.27;;;7.10;99.90;;;;;;5071068;28;20222;-85
2021/10/28 02:29:44;;;;;;;43.10;19.00;;;7.00;99.90;;;;;;5066128;28;20207;-85
2021/10/28 02:32:11;;;;;;;35.63;17.85;;;6.90;99.90;;;;;;5067723;28;20222;-85
2021/10/28 02:34:38;;;;;;;31.45;17.52;;;6.80;99.90;;;;;;5066458;28;20230;-85
2021/10/28 02:37:06;;;;;;;19.35;17.10;;;6.80;99.90;;;;;;5069322;28;20222;-85
2021/10/28 02:39:33;;;;;;;36.85;16.75;;;6.80;99.90;;;;;;5082968;28;20197;-85
2021/10/28 02:41:59;;;;;;;60.30;18.48;;;6.80;99.90;;;;;;5085736;28;20201;-85
2021/10/28 02:44:26;;;;;;;32.20;19.40;;;6.70;99.90;;;;;;5076264;28;20194;-85
2021/10/28 02:46:54;;;;;;;21.58;16.25;;;6.70;99.90;;;;;;5065826;28;20557;-85
2021/10/28 02:49:21;;;;;;;19.98;16.77;;;6.70;99.90;;;;;;5074625;28;20211;-85
2021/10/28 02:51:49;;;;;;;48.88;18.20;;;6.70;99.90;;;;;;5086322;28;20205;-85
2021/10/28 02:54:16;;;;;;;23.05;15.98;;;6.70;99.90;;;;;;5085816;28;20227;-85
2021/10/28 02:56:43;;;;;;;18.55;15.35;;;6.60;99.90;;;;;;5086402;28;20205;-85
2021/10/28 02:59:09;;;;;;;16.42;14.82;;;6.60;99.90;;;;;;5080192;28;20214;-85
2021/10/28 03:01:42;;;;;;;16.35;14.65;;;6.60;99.90;;;;;;5065979;28;20206;-85
2021/10/28 03:04:10;;;;;;;16.40;14.73;;;6.50;99.90;;;;;;5066357;28;20192;-85
2021/10/28 03:06:39;;;;;;;18.75;14.20;;;6.40;99.90;;;;;;5065687;28;20243;-84
2021/10/28 03:09:07;;;;;;;16.63;14.77;;;6.40;99.90;;;;;;5067748;28;20209;-85
2021/10/28 03:11:35;;;;;;;16.45;14.82;;;6.30;99.90;;;;;;5084490;28;20216;-85
2021/10/28 03:14:02;;;;;;;14.68;13.27;;;6.20;99.90;;;;;;5083765;28;20225;-85
2021/10/28 03:16:34;;;;;;;15.20;13.68;;;6.10;99.90;;;;;;5084834;28;20239;-84
2021/10/28 03:19:19;;;;;;;18.02;13.75;;;6.00;99.90;;;;;;5085616;28;20243;-85
2021/10/28 03:27:12;;;;;;;14.95;13.45;;;5.90;99.90;;;;;;5065637;28;20240;-85
2021/10/28 03:29:39;;;;;;;16.40;13.77;;;5.80;99.90;;;;;;5065431;28;20212;-85
2021/10/28 03:32:07;;;;;;;14.52;13.23;;;5.70;99.90;;;;;;5066003;28;20197;-84
2021/10/28 03:34:33;;;;;;;19.38;14.02;;;5.70;99.90;;;;;;5064582;28;20746;-85
2021/10/28 03:37:05;;;;;;;15.82;14.30;;;5.70;99.90;;;;;;5071485;28;20203;-85
2021/10/28 03:39:48;;;;;;;15.40;14.07;;;5.70;99.90;;;;;;5085452;28;20233;-85
2021/10/28 03:48:12;;;;;;;15.27;13.65;;;5.50;99.90;;;;;;5076484;28;20228;-84
2021/10/28 03:51:14;;;;;;;14.82;13.32;;;5.50;99.90;;;;;;5085438;28;20277;-84
2021/10/28 04:18:47;;;;;;;24.50;21.90;;;5.50;99.90;;;;;;5075117;28;20292;-85
2021/10/28 04:29:28;;;;;;;58.35;24.23;;;5.70;99.90;;;;;;5081813;28;20231;-85
2021/10/28 04:31:55;;;;;;;38.35;19.55;;;5.50;99.90;;;;;;5091780;28;20272;-83
2021/10/28 04:34:22;;;;;;;94.30;32.85;;;5.30;99.90;;;;;;5083557;28;20218;-83
2021/10/28 04:36:48;;;;;;;43.03;24.73;;;5.30;99.90;;;;;;5080355;28;20186;-83
2021/10/28 04:39:15;;;;;;;42.28;24.88;;;5.50;99.90;;;;;;5093062;28;20312;-83
2021/10/28 04:41:43;;;;;;;71.65;30.73;;;5.70;99.90;;;;;;5100261;28;20203;-85
2021/10/28 04:44:11;;;;;;;64.70;27.08;;;5.90;99.90;;;;;;5079734;28;20224;-85
2021/10/28 04:46:39;;;;;;;36.78;24.52;;;6.00;99.90;;;;;;5069441;28;20263;-85
2021/10/28 04:49:06;;;;;;;39.85;26.88;;;6.00;99.90;;;;;;5079370;28;20220;-84
2021/10/28 04:51:33;;;;;;;52.85;27.23;;;6.00;99.90;;;;;;5090410;28;20211;-84
2021/10/28 04:54:00;;;;;;;47.58;25.92;;;6.10;99.90;;;;;;5081129;28;20201;-84
2021/10/28 04:56:27;;;;;;;48.10;28.30;;;6.10;99.90;;;;;;5070096;28;20209;-84
2021/10/28 04:58:55;;;;;;;44.70;28.85;;;6.10;99.90;;;;;;5078225;28;20213;-84
2021/10/28 05:01:23;;;;;;;58.75;29.77;;;6.00;99.90;;;;;;5089362;28;20728;-85
2021/10/28 05:03:49;;;;;;;53.92;28.90;;;6.10;99.90;;;;;;5082063;28;20206;-85
2021/10/28 05:06:17;;;;;;;57.95;28.90;;;6.10;99.90;;;;;;5068545;28;20198;-84
2021/10/28 05:08:44;;;;;;;52.83;27.83;;;6.10;99.90;;;;;;5073574;28;20239;-85
2021/10/28 05:11:11;;;;;;;54.63;27.63;;;6.10;99.90;;;;;;5088714;28;20658;-84
2021/10/28 05:13:38;;;;;;;65.07;30.05;;;6.20;99.90;;;;;;5068808;28;20232;-85
2021/10/28 05:16:07;;;;;;;62.63;29.35;;;6.20;99.90;;;;;;5068634;28;20229;-85
2021/10/28 05:18:39;;;;;;;39.80;26.20;;;6.20;99.90;;;;;;5069336;28;20229;-85
2021/10/28 05:21:06;;;;;;;49.47;29.55;;;6.40;99.90;;;;;;5069006;28;20273;-84
2021/10/28 05:23:38;;;;;;;48.55;26.83;;;6.40;99.90;;;;;;5087471;28;20223;-85
2021/10/28 05:26:06;;;;;;;38.58;25.90;;;6.30;99.90;;;;;;5088888;28;20209;-85
2021/10/28 05:28:33;;;;;;;42.70;25.70;;;6.40;99.90;;;;;;5070729;28;20743;-84
2021/10/28 05:31:01;;;;;;;56.97;27.98;;;6.30;99.90;;;;;;5069138;28;20206;-85
2021/10/28 05:33:29;;;;;;;44.50;31.10;;;6.40;99.90;;;;;;5083453;28;20197;-85
2021/10/28 05:35:55;;;;;;;31.38;23.73;;;6.50;99.90;;;;;;5088302;28;20228;-84
2021/10/28 05:38:22;;;;;;;47.83;27.75;;;6.50;99.90;;;;;;5072687;28;20227;-85
2021/10/28 05:40:50;;;;;;;46.70;28.65;;;6.40;99.90;;;;;;5068943;28;20212;-85
2021/10/28 05:43:17;;;;;;;61.40;30.05;;;6.40;99.90;;;;;;5082592;28;20208;-84
2021/10/28 05:45:45;;;;;;;53.83;33.10;;;6.50;99.90;;;;;;5086080;28;20189;-86
2021/10/28 05:48:12;;;;;;;51.63;28.75;;;6.60;99.90;;;;;;5093125;28;20609;-82
2021/10/28 05:50:42;;;;;;;44.95;26.42;;;6.50;99.90;;;;;;5092120;28;20200;-83
2021/10/28 05:53:09;;;;;;;50.47;28.52;;;6.50;99.90;;;;;;5094232;28;20276;-83
2021/10/28 05:55:36;;;;;;;38.40;24.98;;;6.40;99.90;;;;;;5087043;28;20197;-84
2021/10/28 05:58:03;;;;;;;45.50;26.63;;;6.50;99.90;;;;;;5072412;28;20236;-81
2021/10/28 06:00:31;;;;;;;34.53;24.95;;;6.60;99.90;;;;;;5065150;28;20209;-81
2021/10/28 06:02:58;;;;;;;35.80;24.60;;;6.60;99.90;;;;;;5063915;28;20194;-81
2021/10/28 06:05:25;;;;;;;46.65;27.30;;;6.60;99.90;;;;;;5068937;28;20223;-82
2021/10/28 06:07:53;;;;;;;37.38;25.42;;;6.50;99.90;;;;;;5086608;28;20219;-81
2021/10/28 06:10:20;;;;;;;45.00;26.45;;;6.50;99.90;;;;;;5089110;28;20215;-83
2021/10/28 06:12:49;;;;;;;36.28;23.77;;;6.50;99.90;;;;;;5070820;28;20213;-82
2021/10/28 06:15:16;;;;;;;38.40;25.08;;;6.60;99.90;;;;;;5070992;28;20557;-83
2021/10/28 06:17:49;;;;;;;38.25;24.73;;;6.50;99.90;;;;;;5082626;28;20231;-83
2021/10/28 06:20:16;;;;;;;35.85;23.33;;;6.30;99.90;;;;;;5078388;28;20197;-80
2021/10/28 06:22:43;;;;;;;35.60;25.65;;;6.50;99.90;;;;;;5079305;28;20236;-80
2021/10/28 06:25:12;;;;;;;29.75;21.85;;;6.40;99.90;;;;;;5078670;28;20212;-82
2021/10/28 06:27:39;;;;;;;31.08;22.92;;;6.40;99.90;;;;;;5076685;28;20236;-81
2021/10/28 06:30:07;;;;;;;29.33;22.60;;;6.50;99.90;;;;;;5077031;28;20205;-81
2021/10/28 06:32:34;;;;;;;29.33;22.80;;;6.60;99.90;;;;;;5061556;28;20210;-83
2021/10/28 06:35:03;;;;;;;28.67;22.20;;;6.70;99.90;;;;;;5061102;28;20225;-82
2021/10/28 06:37:30;;;;;;;27.80;22.17;;;6.80;99.90;;;;;;5078374;28;20225;-80
2021/10/28 06:39:57;;;;;;;27.40;22.83;;;6.80;99.90;;;;;;5077598;28;20212;-82
2021/10/28 06:42:25;;;;;;;32.85;23.42;;;6.90;99.90;;;;;;5064079;28;20226;-84
2021/10/28 06:44:52;;;;;;;28.65;20.75;;;6.90;99.90;;;;;;5067840;28;20204;-84
2021/10/28 06:47:19;;;;;;;27.52;21.65;;;6.90;99.90;;;;;;5067095;28;20221;-84
2021/10/28 06:49:45;;;;;;;27.77;21.65;;;7.00;99.90;;;;;;5069896;28;20298;-84
2021/10/28 06:52:13;;;;;;;25.50;21.05;;;7.10;99.90;;;;;;5068152;28;20195;-84
2021/10/28 06:54:41;;;;;;;27.83;20.80;;;7.10;99.90;;;;;;5072163;28;20212;-84
2021/10/28 06:57:35;;;;;;;23.25;20.25;;;7.10;99.90;;;;;;5066873;28;20226;-84
2021/10/28 07:02:49;;;;;;;23.80;19.20;;;7.10;99.90;;;;;;5067459;28;20271;-82
2021/10/28 07:05:15;;;;;;;21.58;18.45;;;7.10;99.90;;;;;;5068649;28;20198;-84
2021/10/28 07:07:42;;;;;;;23.98;21.17;;;7.10;99.90;;;;;;5070061;28;20217;-84
2021/10/28 07:10:13;;;;;;;26.33;21.23;;;7.20;99.90;;;;;;5070560;28;20267;-83
2021/10/28 07:12:54;;;;;;;23.70;20.27;;;7.20;99.90;;;;;;5068075;28;20217;-84
2021/10/28 07:15:26;;;;;;;21.45;18.95;;;7.10;99.90;;;;;;5058344;28;20264;-84
2021/10/28 07:18:10;;;;;;;21.27;19.00;;;7.10;99.90;;;;;;5075835;28;20227;-83
2021/10/28 07:23:41;;;;;;;23.55;18.70;;;7.20;99.90;;;;;;5064915;28;20201;-83
2021/10/28 07:59:35;;;;;;;21.70;18.88;;;7.90;99.90;;;;;;5152116;27;20236;-83
2021/10/28 08:05:11;;;;;;;23.05;18.63;;;8.10;99.90;;;;;;5143466;27;20213;-81
2021/10/28 08:16:13;;;;;;;19.38;16.77;;;8.40;99.90;;;;;;5145237;28;20210;-81
2021/10/28 08:18:53;;;;;;;17.90;16.02;;;8.50;99.90;;;;;;5145164;27;20223;-83
2021/10/28 08:24:30;;;;;;;18.17;16.30;;;8.60;99.90;;;;;;5134843;27;20191;-81
2021/10/28 08:29:45;;;;;;;19.67;17.50;;;8.70;99.90;;;;;;5146328;27;20211;-82
2021/10/28 08:32:12;;;;;;;20.63;17.27;;;8.80;99.90;;;;;;5133764;28;20207;-81
2021/10/28 08:34:40;;;;;;;19.05;16.15;;;8.90;99.90;;;;;;5140836;28;20214;-82
2021/10/28 08:37:10;;;;;;;20.05;17.98;;;9.00;99.90;;;;;;5136960;27;20227;-80
2021/10/28 08:39:38;;;;;;;21.83;19.63;;;9.10;99.90;;;;;;5133879;28;20590;-82
2021/10/28 08:42:09;;;;;;;19.83;17.70;;;9.20;99.90;;;;;;5135553;27;20216;-81
2021/10/28 08:44:39;;;;;;;23.25;18.85;;;9.10;99.90;;;;;;5140558;28;20188;-82
2021/10/28 08:47:07;;;;;;;20.13;17.10;;;9.30;99.90;;;;;;5131391;28;20225;-82
2021/10/28 08:49:38;;;;;;;19.58;17.25;;;9.30;99.90;;;;;;5125236;28;20403;-82
2021/10/28 08:52:21;;;;;;;19.45;17.40;;;9.50;99.90;;;;;;5132974;28;20210;-81
2021/10/28 08:55:07;;;;;;;21.65;19.08;;;9.60;99.90;;;;;;5131923;28;20738;-82
2021/10/28 08:58:18;;;;;;;25.27;19.85;;;9.60;99.90;;;;;;5130154;28;20311;-83
2021/10/28 09:23:58;;;;;;;24.40;18.48;;;9.90;99.90;;;;;;5128216;28;20204;-81
2021/10/28 09:26:41;;;;;;;22.52;16.70;;;10.00;99.90;;;;;;5127739;28;20207;-81
2021/10/28 09:29:17;;;;;;;20.17;17.25;;;10.10;99.90;;;;;;5128430;28;20684;-82
2021/10/28 09:31:57;;;;;;;22.67;17.05;;;10.20;99.90;;;;;;5129192;28;20236;-82
2021/10/28 09:34:35;;;;;;;19.05;16.77;;;10.30;99.90;;;;;;5129141;28;20209;-83
2021/10/28 09:45:51;;;;;;;18.45;15.82;;;10.80;99.90;;;;;;5126430;28;20200;-83
2021/10/28 09:48:44;;;;;;;20.92;17.38;;;10.80;99.90;;;;;;5126891;28;20590;-81
2021/10/28 09:51:14;;;;;;;19.25;14.82;;;10.80;99.90;;;;;;5128473;27;20201;-81
2021/10/28 09:53:59;;;;;;;17.03;15.33;;;10.90;99.90;;;;;;5127286;28;20211;-82
2021/10/28 09:59:21;;;;;;;19.03;17.00;;;11.10;99.90;;;;;;5125572;28;20490;-82
2021/10/28 10:01:49;;;;;;;16.60;14.80;;;11.20;99.90;;;;;;5127736;28;20480;-82
2021/10/28 10:04:17;;;;;;;19.27;15.23;;;11.40;99.90;;;;;;5126979;28;20457;-81
2021/10/28 10:06:46;;;;;;;24.17;17.20;;;11.50;99.90;;;;;;5119517;28;20445;-81
2021/10/28 10:09:13;;;;;;;15.80;13.70;;;11.60;99.90;;;;;;5117438;28;20452;-82
2021/10/28 10:11:40;;;;;;;20.57;16.27;;;11.70;99.90;;;;;;5117011;28;20445;-82
2021/10/28 10:14:07;;;;;;;19.63;16.40;;;11.80;99.90;;;;;;5117537;28;20946;-82
2021/10/28 10:16:34;;;;;;;17.30;15.67;;;11.90;99.90;;;;;;5120191;28;20481;-83
2021/10/28 10:19:02;;;;;;;17.53;15.77;;;12.10;99.90;;;;;;5122389;28;20469;-84
2021/10/28 10:21:34;;;;;;;19.00;15.53;;;12.40;99.90;;;;;;5122241;28;20455;-84
2021/10/28 10:24:14;;;;;;;16.80;15.00;;;12.50;99.90;;;;;;5122596;28;20493;-84
2021/10/28 10:27:35;;;;;;;15.60;13.70;;;12.70;99.90;;;;;;5121571;28;20452;-84
2021/10/28 12:19:47;;;;;;;8.67;8.07;;;25.70;65.00;;;;;;5115620;28;20894;-79
2021/10/28 12:45:56;;;;;;;12.37;11.27;;;26.40;61.40;;;;;;5103981;28;20508;-81
2021/10/28 12:48:53;;;;;;;12.10;11.10;;;26.30;62.00;;;;;;5133161;28;20482;-84
2021/10/28 12:51:36;;;;;;;11.37;10.37;;;26.40;63.20;;;;;;5131253;28;20456;-83
2021/10/28 13:02:04;;;;;;;10.20;9.40;;;27.30;60.80;;;;;;5119421;28;20502;-83
2021/10/28 13:48:49;;;;;;;10.70;9.77;;;23.00;68.10;;;;;;5065555;28;20887;-83
2021/10/28 13:51:35;;;;;;;12.57;11.30;;;22.90;68.00;;;;;;5058108;28;20882;-84
2021/10/28 13:57:11;;;;;;;11.90;10.70;;;21.90;69.50;;;;;;5115164;28;20421;-83
2021/10/28 14:21:55;;;;;;;9.97;8.93;;;20.00;77.50;;;;;;5100018;28;20784;-83
2021/10/28 14:24:54;;;;;;;11.23;10.10;;;19.90;77.40;;;;;;5102233;28;20473;-82
2021/10/28 15:03:30;;;;;;;10.23;9.07;;;17.20;88.50;;;;;;5061166;28;20438;-83
2021/10/28 15:28:13;;;;;;;10.20;8.43;;;16.10;92.50;;;;;;5081952;28;20480;-83
2021/10/28 15:31:10;;;;;;;9.63;8.37;;;16.00;92.80;;;;;;5080633;28;20494;-83
2021/10/28 15:36:24;;;;;;;11.40;8.53;;;15.90;93.20;;;;;;5100357;28;20442;-83
2021/10/28 15:39:01;;;;;;;10.10;8.53;;;15.90;93.50;;;;;;5099428;28;20468;-82
2021/10/28 16:01:16;;;;;;;9.50;8.70;;;15.20;95.90;;;;;;5098329;28;20446;-81
2021/10/28 16:22:59;;;;;;;9.67;8.77;;;14.10;98.90;;;;;;5100075;28;20473;-83
2021/10/28 16:25:26;;;;;;;8.80;7.90;;;14.00;99.70;;;;;;5102232;28;20491;-83
2021/10/28 16:27:54;;;;;;;9.40;8.50;;;13.90;99.90;;;;;;5099997;28;20485;-82
2021/10/28 16:30:21;;;;;;;9.90;8.67;;;13.80;99.90;;;;;;5099857;28;20835;-82
2021/10/28 16:32:47;;;;;;;9.10;7.87;;;13.70;99.90;;;;;;5100027;28;20536;-82
2021/10/28 16:35:15;;;;;;;9.87;8.90;;;13.60;99.90;;;;;;5099422;28;20450;-83
2021/10/28 16:37:42;;;;;;;9.77;8.87;;;13.40;99.90;;;;;;5101573;28;20470;-83
2021/10/28 16:40:10;;;;;;;10.30;9.10;;;13.30;99.90;;;;;;5100372;28;20445;-83
2021/10/28 16:42:37;;;;;;;13.30;10.80;;;13.20;99.90;;;;;;5105044;28;20835;-83
2021/10/28 16:45:08;;;;;;;11.63;10.43;;;13.00;99.90;;;;;;5098047;28;20453;-83
2021/10/28 16:47:35;;;;;;;11.57;10.37;;;12.90;99.90;;;;;;5099455;28;20580;-83
2021/10/28 16:50:03;;;;;;;9.23;8.33;;;12.80;99.90;;;;;;5100278;28;20449;-83
2021/10/28 16:52:29;;;;;;;10.53;9.20;;;12.70;99.90;;;;;;5100862;28;20503;-83
2021/10/28 16:54:56;;;;;;;12.17;10.47;;;12.70;99.90;;;;;;5096543;28;20460;-84
2021/10/28 16:57:23;;;;;;;10.50;9.50;;;12.60;99.90;;;;;;5097204;28;20503;-83
2021/10/28 16:59:50;;;;;;;10.30;9.27;;;12.50;99.90;;;;;;5098309;28;20915;-84
2021/10/28 17:02:18;;;;;;;11.93;10.73;;;12.40;99.90;;;;;;5101592;28;20449;-84
2021/10/28 17:04:46;;;;;;;10.77;9.70;;;12.30;99.90;;;;;;5100967;28;20446;-84
2021/10/28 17:07:13;;;;;;;11.73;10.53;;;12.30;99.90;;;;;;5100873;28;20492;-83
2021/10/28 17:09:42;;;;;;;10.63;9.60;;;12.10;99.90;;;;;;5102195;28;20453;-84
2021/10/28 17:12:10;;;;;;;9.93;9.03;;;12.00;99.90;;;;;;5106760;28;20474;-83
2021/10/28 17:14:38;;;;;;;12.37;11.03;;;11.90;99.90;;;;;;5100975;28;20485;-84
2021/10/28 17:17:05;;;;;;;11.00;10.07;;;11.80;99.90;;;;;;5104795;28;20484;-83
2021/10/28 17:19:33;;;;;;;10.90;9.80;;;11.70;99.90;;;;;;5102854;28;20464;-84
2021/10/28 17:22:00;;;;;;;12.47;11.30;;;11.70;99.90;;;;;;5105933;28;20814;-84
2021/10/28 17:24:33;;;;;;;13.60;11.83;;;11.60;99.90;;;;;;5105566;28;20472;-83
2021/10/28 17:27:00;;;;;;;13.40;12.00;;;11.60;99.90;;;;;;5104377;28;20919;-83
2021/10/28 17:29:27;;;;;;;14.60;12.80;;;11.60;99.90;;;;;;5105619;28;20454;-84
2021/10/28 17:31:55;;;;;;;19.03;16.00;;;11.50;99.90;;;;;;5095271;28;20522;-83
2021/10/28 17:34:26;;;;;;;13.73;12.37;;;11.40;99.90;;;;;;5099434;28;20481;-81
2021/10/28 17:36:55;;;;;;;14.37;12.83;;;11.40;99.90;;;;;;5099677;28;20452;-83
2021/10/28 17:39:24;;;;;;;14.23;12.77;;;11.30;99.90;;;;;;5103246;28;20453;-83
2021/10/28 17:41:53;;;;;;;17.20;13.00;;;11.30;99.90;;;;;;5095097;28;20460;-82
2021/10/28 17:44:23;;;;;;;14.93;13.53;;;11.20;99.90;;;;;;5100448;28;20459;-83
2021/10/28 17:46:50;;;;;;;15.20;13.77;;;11.10;99.90;;;;;;5104171;28;20445;-83
2021/10/28 17:49:17;;;;;;;18.50;15.60;;;11.10;99.90;;;;;;5114820;28;20564;-82
2021/10/28 17:51:44;;;;;;;16.27;14.60;;;11.00;99.90;;;;;;5113488;28;20453;-83
2021/10/28 17:54:12;;;;;;;14.53;12.07;;;11.00;99.90;;;;;;5104853;28;20471;-83
2021/10/28 17:56:40;;;;;;;16.30;13.43;;;11.00;99.90;;;;;;5103757;28;20451;-83
2021/10/28 17:59:08;;;;;;;17.20;14.13;;;10.90;99.90;;;;;;5103770;28;20460;-83
2021/10/28 18:01:38;;;;;;;14.70;13.10;;;10.90;99.90;;;;;;5104004;28;20456;-83
2021/10/28 18:04:06;;;;;;;15.63;14.13;;;10.80;99.90;;;;;;5105291;28;20454;-83
2021/10/28 18:06:33;;;;;;;14.10;12.80;;;10.80;99.90;;;;;;5111346;28;20493;-84
2021/10/28 18:09:01;;;;;;;18.93;15.33;;;10.80;99.90;;;;;;5111372;28;20498;-83
2021/10/28 18:11:29;;;;;;;19.07;17.13;;;10.70;99.90;;;;;;5107248;28;20511;-83
2021/10/28 18:13:57;;;;;;;17.43;15.13;;;10.60;99.90;;;;;;5105211;28;20447;-84
2021/10/28 18:16:26;;;;;;;15.80;14.40;;;10.60;99.90;;;;;;5105136;28;20452;-83
2021/10/28 18:18:52;;;;;;;16.87;15.37;;;10.50;99.90;;;;;;5104205;28;20529;-83
2021/10/28 18:21:20;;;;;;;18.37;16.47;;;10.50;99.90;;;;;;5103309;28;20451;-84
2021/10/28 18:23:49;;;;;;;17.93;16.17;;;10.50;99.90;;;;;;5101954;28;20458;-84
2021/10/28 18:26:16;;;;;;;16.20;13.90;;;10.40;99.90;;;;;;5102495;28;20449;-83
2021/10/28 18:28:44;;;;;;;18.47;15.67;;;10.30;99.90;;;;;;5119114;28;20500;-83
2021/10/28 18:31:11;;;;;;;18.40;16.60;;;10.30;99.90;;;;;;5119336;28;20431;-82
2021/10/28 18:33:39;;;;;;;19.87;15.77;;;10.20;99.90;;;;;;5119395;28;20429;-84
2021/10/28 18:36:08;;;;;;;16.57;14.97;;;10.20;99.90;;;;;;5107149;28;20496;-83
2021/10/28 18:38:36;;;;;;;19.92;18.02;;;10.10;99.90;;;;;;5103146;28;20645;-84
2021/10/28 18:41:04;;;;;;;22.23;19.95;;;10.10;99.90;;;;;;5102034;28;20207;-83
2021/10/28 18:43:31;;;;;;;23.07;18.87;;;10.10;99.90;;;;;;5100228;28;20205;-82
2021/10/28 18:45:59;;;;;;;22.33;19.95;;;10.10;99.90;;;;;;5098881;28;20444;-83
2021/10/28 18:48:27;;;;;;;21.43;19.30;;;10.00;99.90;;;;;;5099023;28;20229;-83
2021/10/28 18:50:55;;;;;;;23.45;18.42;;;10.00;99.90;;;;;;5098587;28;20461;-83
2021/10/28 18:53:23;;;;;;;18.50;16.70;;;10.00;99.90;;;;;;5100115;28;20210;-84
2021/10/28 18:55:49;;;;;;;19.60;17.55;;;9.90;99.90;;;;;;5100121;28;20668;-83
2021/10/28 18:58:16;;;;;;;20.40;18.23;;;9.90;99.90;;;;;;5098871;28;20225;-84
2021/10/28 19:00:43;;;;;;;18.80;16.90;;;9.80;99.90;;;;;;5098715;28;20202;-83
2021/10/28 19:03:11;;;;;;;17.20;15.40;;;9.80;99.90;;;;;;5098686;28;20209;-83
2021/10/28 19:05:38;;;;;;;16.23;14.63;;;9.80;99.90;;;;;;5097727;28;20208;-82
2021/10/28 19:08:05;;;;;;;18.55;16.58;;;9.80;99.90;;;;;;5098553;28;20236;-82
2021/10/28 19:10:32;;;;;;;19.90;16.95;;;9.60;99.90;;;;;;5098274;28;20202;-82
2021/10/28 19:12:59;;;;;;;19.33;16.95;;;9.60;99.90;;;;;;5098844;28;20212;-82
2021/10/28 19:15:26;;;;;;;16.40;14.75;;;9.60;99.90;;;;;;5098334;28;20272;-82
2021/10/28 19:17:53;;;;;;;21.15;16.85;;;9.50;99.90;;;;;;5098459;28;20232;-82
2021/10/28 19:20:22;;;;;;;19.05;16.73;;;9.50;99.90;;;;;;5098776;28;20199;-83
2021/10/28 19:22:49;;;;;;;18.35;16.48;;;9.50;99.90;;;;;;5098478;28;20211;-82
2021/10/28 19:25:15;;;;;;;16.17;14.60;;;9.40;99.90;;;;;;5098649;28;20209;-82
2021/10/28 19:27:42;;;;;;;19.95;17.13;;;9.40;99.90;;;;;;5099211;28;20605;-84
2021/10/28 19:30:23;;;;;;;19.23;17.25;;;9.40;99.90;;;;;;5108150;28;20208;-85
2021/10/28 19:32:51;;;;;;;17.13;15.32;;;9.30;99.90;;;;;;5103671;28;20666;-84
2021/10/28 19:35:20;;;;;;;17.85;15.95;;;9.30;99.90;;;;;;5098358;28;20197;-82
2021/10/28 19:37:53;;;;;;;18.95;16.25;;;9.20;99.90;;;;;;5087518;28;20265;-83
2021/10/28 19:40:32;;;;;;;19.65;16.80;;;9.20;99.90;;;;;;5099225;28;20205;-82
2021/10/28 19:48:28;;;;;;;16.33;14.68;;;9.10;99.90;;;;;;5102332;28;20232;-83
2021/10/28 19:50:54;;;;;;;16.55;14.80;;;9.00;99.90;;;;;;5099584;28;20205;-83
2021/10/28 19:53:23;;;;;;;18.85;15.90;;;9.00;99.90;;;;;;5099015;28;20193;-84
2021/10/28 19:55:50;;;;;;;18.30;16.50;;;9.00;99.90;;;;;;5101414;28;20214;-83
2021/10/28 19:58:20;;;;;;;17.45;15.80;;;8.90;99.90;;;;;;5101829;28;20224;-82
2021/10/28 20:00:53;;;;;;;15.40;13.88;;;8.90;99.90;;;;;;5100941;28;20205;-83
2021/10/28 20:14:36;;;;;;;16.40;14.85;;;8.60;99.90;;;;;;5091638;28;20200;-83
2021/10/28 20:20:08;;;;;;;19.92;14.70;;;8.50;99.90;;;;;;5108907;28;20685;-83
2021/10/28 20:22:36;;;;;;;18.08;16.23;;;8.50;99.90;;;;;;5105664;28;20260;-84
2021/10/28 20:25:05;;;;;;;17.40;15.63;;;8.50;99.90;;;;;;5103943;28;20215;-85
2021/10/28 20:27:32;;;;;;;17.55;15.57;;;8.50;99.90;;;;;;5102707;28;20228;-85
2021/10/28 20:30:00;;;;;;;18.00;16.13;;;8.40;99.90;;;;;;5112076;28;20289;-83
2021/10/28 20:32:28;;;;;;;17.23;15.48;;;8.40;99.90;;;;;;5111852;28;20229;-84
2021/10/28 20:35:09;;;;;;;16.38;14.98;;;8.40;99.90;;;;;;5111585;28;20218;-83
2021/10/28 20:37:37;;;;;;;22.63;17.70;;;8.40;99.90;;;;;;5111796;28;20255;-85
2021/10/28 20:40:07;;;;;;;19.45;17.38;;;8.40;99.90;;;;;;5113427;28;20259;-85
2021/10/28 20:42:38;;;;;;;15.65;14.15;;;8.30;99.90;;;;;;5112839;28;20273;-84
2021/10/28 20:45:07;;;;;;;16.10;14.32;;;8.30;99.90;;;;;;5099915;28;20204;-82
2021/10/28 20:47:34;;;;;;;18.92;16.88;;;8.30;99.90;;;;;;5100120;28;20216;-84